createdAt,value
2023-12-16T00:00:38.255Z,12.52
2023-12-16T00:01:40.449Z,12.56
2023-12-16T00:02:38.201Z,10.12
2023-12-16T00:03:37.678Z,7.08
2023-12-16T00:04:38.456Z,6.24
2023-12-16T00:05:38.041Z,2.44
2023-12-16T00:06:37.624Z,3.00
2023-12-16T00:07:38.848Z,3.04
2023-12-16T00:08:37.594Z,4.32
2023-12-16T00:09:38.405Z,5.04
2023-12-16T00:10:38.476Z,8.12
2023-12-16T00:11:37.733Z,5.96
2023-12-16T00:12:38.626Z,3.36
2023-12-16T00:13:38.344Z,8.44
2023-12-16T00:14:38.020Z,6.08
2023-12-16T00:15:38.374Z,3.64
2023-12-16T00:16:38.035Z,5.72
2023-12-16T00:17:38.547Z,7.68
2023-12-16T00:18:39.008Z,6.52
2023-12-16T00:19:37.824Z,8.16
2023-12-16T00:20:38.207Z,6.88
2023-12-16T00:21:38.241Z,6.40
2023-12-16T00:22:38.102Z,7.64
2023-12-16T00:23:37.673Z,8.28
2023-12-16T00:24:38.140Z,9.80
2023-12-16T00:25:37.739Z,14.88
2023-12-16T00:26:38.525Z,8.80
2023-12-16T00:27:39.269Z,11.08
2023-12-16T00:28:38.680Z,13.24
2023-12-16T00:29:39.067Z,4.24
2023-12-16T00:30:37.824Z,10.16
2023-12-16T00:31:38.557Z,5.20
2023-12-16T00:32:37.985Z,8.28
2023-12-16T00:33:38.035Z,6.24
2023-12-16T00:34:38.253Z,8.00
2023-12-16T00:35:38.326Z,8.48
2023-12-16T00:36:38.010Z,5.96
2023-12-16T00:37:37.535Z,11.32
2023-12-16T00:38:38.727Z,10.92
2023-12-16T00:39:44.020Z,13.16
2023-12-16T00:40:37.914Z,10.88
2023-12-16T00:41:37.217Z,11.56
2023-12-16T00:42:38.169Z,9.96
2023-12-16T00:43:37.891Z,11.32
2023-12-16T00:44:37.847Z,12.56
2023-12-16T00:45:38.971Z,10.48
2023-12-16T00:46:37.882Z,9.36
2023-12-16T00:47:37.817Z,10.96
2023-12-16T00:48:38.121Z,11.44
2023-12-16T00:49:37.384Z,18.60
2023-12-16T00:50:38.070Z,7.80
2023-12-16T00:51:38.777Z,10.52
2023-12-16T00:52:38.597Z,11.72
2023-12-16T00:53:38.837Z,12.24
2023-12-16T00:54:38.891Z,9.72
2023-12-16T00:55:38.898Z,8.76
2023-12-16T00:56:37.830Z,9.52
2023-12-16T00:57:38.627Z,10.12
2023-12-16T00:58:38.124Z,10.24
2023-12-16T00:59:37.301Z,9.92
2023-12-16T01:00:38.552Z,12.64
2023-12-16T01:01:39.107Z,12.72
2023-12-16T01:02:39.028Z,16.04
2023-12-16T01:03:38.090Z,10.28
2023-12-16T01:04:38.196Z,13.80
2023-12-16T01:05:37.797Z,10.00
2023-12-16T01:06:38.374Z,17.32
2023-12-16T01:07:38.407Z,18.08
2023-12-16T01:08:38.621Z,19.88
2023-12-16T01:09:39.067Z,9.40
2023-12-16T01:10:38.245Z,7.32
2023-12-16T01:11:38.173Z,8.20
2023-12-16T01:12:37.811Z,12.20
2023-12-16T01:13:38.307Z,13.64
2023-12-16T01:14:38.323Z,9.64
2023-12-16T01:15:38.791Z,9.60
2023-12-16T01:16:39.486Z,6.36
2023-12-16T01:17:38.414Z,5.68
2023-12-16T01:18:38.466Z,7.24
2023-12-16T01:19:38.120Z,7.36
2023-12-16T01:20:37.719Z,6.32
2023-12-16T01:21:38.908Z,4.64
2023-12-16T01:22:37.327Z,7.68
2023-12-16T01:23:38.079Z,9.28
2023-12-16T01:24:37.797Z,6.84
2023-12-16T01:25:38.994Z,7.56
2023-12-16T01:26:37.412Z,6.76
2023-12-16T01:27:38.449Z,4.12
2023-12-16T01:28:38.285Z,7.20
2023-12-16T01:29:37.915Z,6.52
2023-12-16T01:30:37.436Z,3.52
2023-12-16T01:31:38.583Z,7.28
2023-12-16T01:32:38.771Z,6.56
2023-12-16T01:33:38.704Z,6.88
2023-12-16T01:34:38.469Z,8.48
2023-12-16T01:35:37.863Z,5.16
2023-12-16T01:36:38.329Z,3.52
2023-12-16T01:37:38.657Z,3.80
2023-12-16T01:38:38.695Z,5.76
2023-12-16T01:39:38.133Z,5.76
2023-12-16T01:40:37.902Z,4.48
2023-12-16T01:41:38.011Z,8.24
2023-12-16T01:42:37.606Z,5.76
2023-12-16T01:43:38.306Z,7.48
2023-12-16T01:44:37.817Z,8.16
2023-12-16T01:45:38.998Z,5.08
2023-12-16T01:46:37.991Z,3.72
2023-12-16T01:47:38.312Z,3.84
2023-12-16T01:48:38.057Z,4.32
2023-12-16T01:49:37.915Z,5.48
2023-12-16T01:50:37.330Z,3.64
2023-12-16T01:51:38.902Z,5.76
2023-12-16T01:52:39.236Z,7.56
2023-12-16T01:54:38.480Z,5.44
2023-12-16T01:55:38.164Z,5.48
2023-12-16T01:56:37.888Z,8.16
2023-12-16T01:57:37.712Z,8.36
2023-12-16T01:58:37.757Z,9.68
2023-12-16T01:59:38.663Z,7.04
2023-12-16T02:00:38.657Z,4.72
2023-12-16T02:01:39.328Z,6.56
2023-12-16T02:02:37.856Z,8.92
2023-12-16T02:03:39.144Z,10.36
2023-12-16T02:04:37.600Z,8.88
2023-12-16T02:05:38.206Z,8.56
2023-12-16T02:06:38.184Z,11.28
2023-12-16T02:07:38.948Z,6.96
2023-12-16T02:08:37.653Z,8.68
2023-12-16T02:09:38.212Z,7.00
2023-12-16T02:10:37.481Z,8.40
2023-12-16T02:11:38.562Z,6.00
2023-12-16T02:12:38.869Z,6.56
2023-12-16T02:13:39.254Z,8.12
2023-12-16T02:14:37.882Z,7.64
2023-12-16T02:15:37.120Z,7.48
2023-12-16T02:16:38.218Z,3.40
2023-12-16T02:17:38.501Z,2.56
2023-12-16T02:18:38.842Z,4.96
2023-12-16T02:19:37.815Z,5.52
2023-12-16T02:20:37.931Z,4.88
2023-12-16T02:21:38.439Z,5.60
2023-12-16T02:22:38.507Z,3.12
2023-12-16T02:23:37.861Z,3.36
2023-12-16T02:24:37.818Z,3.24
2023-12-16T02:25:37.539Z,5.68
2023-12-16T02:26:38.072Z,6.88
2023-12-16T02:27:38.423Z,5.96
2023-12-16T02:28:38.867Z,8.88
2023-12-16T02:29:37.474Z,3.00
2023-12-16T02:30:38.583Z,9.48
2023-12-16T02:31:38.869Z,9.92
2023-12-16T02:32:37.433Z,7.20
2023-12-16T02:33:38.210Z,2.84
2023-12-16T02:34:38.461Z,1.40
2023-12-16T02:35:38.912Z,2.00
2023-12-16T02:36:37.274Z,4.32
2023-12-16T02:37:38.612Z,5.00
2023-12-16T02:38:38.866Z,4.52
2023-12-16T02:39:38.490Z,4.36
2023-12-16T02:40:38.153Z,7.60
2023-12-16T02:41:37.377Z,5.80
2023-12-16T02:42:38.471Z,6.32
2023-12-16T02:43:38.652Z,6.92
2023-12-16T02:44:38.982Z,7.96
2023-12-16T02:45:37.570Z,6.76
2023-12-16T02:46:37.927Z,5.00
2023-12-16T02:47:38.946Z,6.00
2023-12-16T02:48:37.550Z,5.80
2023-12-16T02:49:38.326Z,4.12
2023-12-16T02:50:38.769Z,5.80
2023-12-16T02:51:39.012Z,5.20
2023-12-16T02:52:38.072Z,6.52
2023-12-16T02:53:37.831Z,6.08
2023-12-16T02:54:38.482Z,1.88
2023-12-16T02:55:38.485Z,6.68
2023-12-16T02:56:38.487Z,5.36
2023-12-16T02:57:40.019Z,5.04
2023-12-16T02:58:37.848Z,8.92
2023-12-16T02:59:37.909Z,6.20
2023-12-16T03:00:37.312Z,8.44
2023-12-16T03:01:38.386Z,9.44
2023-12-16T03:02:37.742Z,13.84
2023-12-16T03:03:38.147Z,15.24
2023-12-16T03:04:37.984Z,14.24
2023-12-16T03:05:38.283Z,10.44
2023-12-16T03:06:38.363Z,3.52
2023-12-16T03:07:38.377Z,11.40
2023-12-16T03:08:38.070Z,10.80
2023-12-16T03:09:37.645Z,6.96
2023-12-16T03:10:38.619Z,5.92
2023-12-16T03:11:38.837Z,7.04
2023-12-16T03:12:38.863Z,11.84
2023-12-16T03:13:38.833Z,7.64
2023-12-16T03:14:39.159Z,7.96
2023-12-16T03:15:38.711Z,9.60
2023-12-16T03:16:38.421Z,7.32
2023-12-16T03:17:38.427Z,11.16
2023-12-16T03:18:38.585Z,6.36
2023-12-16T03:19:38.360Z,5.84
2023-12-16T03:20:37.850Z,4.00
2023-12-16T03:21:37.285Z,6.76
2023-12-16T03:22:38.191Z,14.16
2023-12-16T03:23:38.402Z,5.24
2023-12-16T03:24:45.158Z,4.96
2023-12-16T03:25:38.085Z,5.16
2023-12-16T03:26:37.697Z,2.76
2023-12-16T03:27:38.524Z,13.64
2023-12-16T03:28:37.916Z,9.52
2023-12-16T03:29:37.209Z,15.32
2023-12-16T03:30:38.034Z,11.36
2023-12-16T03:31:38.120Z,8.48
2023-12-16T03:32:38.146Z,13.48
2023-12-16T03:33:38.439Z,11.92
2023-12-16T03:34:37.964Z,14.44
2023-12-16T03:35:37.618Z,10.92
2023-12-16T03:36:38.383Z,11.28
2023-12-16T03:37:38.599Z,13.16
2023-12-16T03:38:39.080Z,13.28
2023-12-16T03:39:37.330Z,6.00
2023-12-16T03:40:38.345Z,11.48
2023-12-16T03:41:37.744Z,17.88
2023-12-16T03:42:38.476Z,12.72
2023-12-16T03:43:38.028Z,18.84
2023-12-16T03:44:37.936Z,9.84
2023-12-16T03:45:37.676Z,13.80
2023-12-16T03:46:38.389Z,12.40
2023-12-16T03:47:38.661Z,10.04
2023-12-16T03:48:38.153Z,7.92
2023-12-16T03:49:38.404Z,12.16
2023-12-16T03:50:38.446Z,8.16
2023-12-16T03:51:37.988Z,7.88
2023-12-16T03:52:37.365Z,10.92
2023-12-16T03:53:37.914Z,10.04
2023-12-16T03:54:37.515Z,14.04
2023-12-16T03:55:38.673Z,6.84
2023-12-16T03:56:38.482Z,3.60
2023-12-16T03:57:38.306Z,11.68
2023-12-16T03:58:38.121Z,13.72
2023-12-16T03:59:38.067Z,9.24
2023-12-16T04:00:37.865Z,8.20
2023-12-16T04:01:38.127Z,9.68
2023-12-16T04:02:38.029Z,5.04
2023-12-16T04:03:38.256Z,9.20
2023-12-16T04:04:37.974Z,11.04
2023-12-16T04:05:37.980Z,9.48
2023-12-16T04:06:38.514Z,10.60
2023-12-16T04:07:38.822Z,12.08
2023-12-16T04:08:37.511Z,17.44
2023-12-16T04:09:38.188Z,13.52
2023-12-16T04:10:38.012Z,10.32
2023-12-16T04:11:55.167Z,23.28
2023-12-16T04:12:37.742Z,10.50
2023-12-16T04:13:38.225Z,10.12
2023-12-16T04:14:38.037Z,19.12
2023-12-16T04:15:38.138Z,12.88
2023-12-16T04:16:38.196Z,12.40
2023-12-16T04:17:38.028Z,19.68
2023-12-16T04:18:38.236Z,19.12
2023-12-16T04:19:37.819Z,12.12
2023-12-16T04:20:38.624Z,15.32
2023-12-16T04:21:38.329Z,15.44
2023-12-16T04:22:37.892Z,7.04
2023-12-16T04:23:37.773Z,6.64
2023-12-16T04:24:38.836Z,11.04
2023-12-16T04:25:38.396Z,6.60
2023-12-16T04:26:37.818Z,6.12
2023-12-16T04:27:38.996Z,17.36
2023-12-16T04:28:37.736Z,13.56
2023-12-16T04:29:38.349Z,5.00
2023-12-16T04:30:38.199Z,9.48
2023-12-16T04:31:37.869Z,10.84
2023-12-16T04:32:37.637Z,8.00
2023-12-16T04:33:38.854Z,5.92
2023-12-16T04:34:38.145Z,5.84
2023-12-16T04:35:38.313Z,6.08
2023-12-16T04:36:37.629Z,10.16
2023-12-16T04:37:38.436Z,11.64
2023-12-16T04:38:38.460Z,10.64
2023-12-16T04:39:37.867Z,1.40
2023-12-16T04:40:37.605Z,6.04
2023-12-16T04:41:37.833Z,13.12
2023-12-16T04:42:39.193Z,9.64
2023-12-16T04:43:38.094Z,9.76
2023-12-16T04:44:37.675Z,16.64
2023-12-16T04:45:38.326Z,6.32
2023-12-16T04:46:38.337Z,8.08
2023-12-16T04:47:38.531Z,5.88
2023-12-16T04:48:37.822Z,8.72
2023-12-16T04:49:38.197Z,6.08
2023-12-16T04:50:37.932Z,4.76
2023-12-16T04:51:37.982Z,5.68
2023-12-16T04:52:37.786Z,4.64
2023-12-16T04:53:38.232Z,15.68
2023-12-16T04:54:37.487Z,14.40
2023-12-16T04:55:38.554Z,10.40
2023-12-16T04:56:38.654Z,3.44
2023-12-16T04:57:38.673Z,5.84
2023-12-16T04:58:38.299Z,9.48
2023-12-16T04:59:37.899Z,4.76
2023-12-16T05:00:37.677Z,5.04
2023-12-16T05:01:37.974Z,5.00
2023-12-16T05:02:38.118Z,5.00
2023-12-16T05:03:37.927Z,6.16
2023-12-16T05:04:37.413Z,7.24
2023-12-16T05:05:37.922Z,11.88
2023-12-16T05:06:38.038Z,4.80
2023-12-16T05:07:38.533Z,16.48
2023-12-16T05:08:38.140Z,7.20
2023-12-16T05:09:38.113Z,4.40
2023-12-16T05:10:37.826Z,3.64
2023-12-16T05:11:38.835Z,10.24
2023-12-16T05:12:37.257Z,18.32
2023-12-16T05:13:37.556Z,13.52
2023-12-16T05:14:38.607Z,7.12
2023-12-16T05:15:38.263Z,5.52
2023-12-16T05:16:37.914Z,3.92
2023-12-16T05:17:39.048Z,5.76
2023-12-16T05:18:38.454Z,4.44
2023-12-16T05:19:38.490Z,9.92
2023-12-16T05:20:38.103Z,5.72
2023-12-16T05:21:37.882Z,5.44
2023-12-16T05:22:38.830Z,5.08
2023-12-16T05:23:38.623Z,9.52
2023-12-16T05:24:38.911Z,10.32
2023-12-16T05:25:37.739Z,17.96
2023-12-16T05:26:38.148Z,11.52
2023-12-16T05:27:38.569Z,14.04
2023-12-16T05:28:38.490Z,12.36
2023-12-16T05:29:43.004Z,11.20
2023-12-16T05:30:37.716Z,14.92
2023-12-16T05:31:38.240Z,11.96
2023-12-16T05:32:37.731Z,6.56
2023-12-16T05:33:38.315Z,9.80
2023-12-16T05:34:38.037Z,3.44
2023-12-16T05:35:38.400Z,11.80
2023-12-16T05:36:38.583Z,6.76
2023-12-16T05:37:38.379Z,7.84
2023-12-16T05:38:38.737Z,5.00
2023-12-16T05:39:38.349Z,8.68
2023-12-16T05:40:38.446Z,15.88
2023-12-16T05:41:37.915Z,8.16
2023-12-16T05:42:37.745Z,12.40
2023-12-16T05:43:38.415Z,8.04
2023-12-16T05:44:38.639Z,14.04
2023-12-16T05:45:38.218Z,14.96
2023-12-16T05:46:38.146Z,8.52
2023-12-16T05:47:38.539Z,10.08
2023-12-16T05:48:38.328Z,9.88
2023-12-16T05:49:38.183Z,3.32
2023-12-16T05:50:37.552Z,12.21
2023-12-16T05:51:38.148Z,13.00
2023-12-16T05:52:37.842Z,14.96
2023-12-16T05:53:38.519Z,8.96
2023-12-16T05:54:38.238Z,9.92
2023-12-16T05:55:37.915Z,7.76
2023-12-16T05:56:37.716Z,15.48
2023-12-16T05:57:38.716Z,9.08
2023-12-16T05:58:38.036Z,12.72
2023-12-16T05:59:38.637Z,11.28
2023-12-16T06:00:38.320Z,16.80
2023-12-16T06:01:38.428Z,7.56
2023-12-16T06:02:38.755Z,10.20
2023-12-16T06:03:38.740Z,16.20
2023-12-16T06:04:38.547Z,16.56
2023-12-16T06:05:38.537Z,12.96
2023-12-16T06:06:37.761Z,12.24
2023-12-16T06:07:38.919Z,9.80
2023-12-16T06:08:37.742Z,11.92
2023-12-16T06:09:37.937Z,13.80
2023-12-16T06:10:38.041Z,10.72
2023-12-16T06:11:38.045Z,8.32
2023-12-16T06:12:38.069Z,9.84
2023-12-16T06:13:37.726Z,13.20
2023-12-16T06:14:39.812Z,11.08
2023-12-16T06:15:38.521Z,17.36
2023-12-16T06:16:38.535Z,17.64
2023-12-16T06:17:38.819Z,16.20
2023-12-16T06:18:38.096Z,12.40
2023-12-16T06:19:38.331Z,9.68
2023-12-16T06:20:37.750Z,20.28
2023-12-16T06:21:38.599Z,17.56
2023-12-16T06:22:37.771Z,22.68
2023-12-16T06:23:38.818Z,5.60
2023-12-16T06:24:38.670Z,8.64
2023-12-16T06:25:38.420Z,9.96
2023-12-16T06:26:37.946Z,7.96
2023-12-16T06:27:37.729Z,14.68
2023-12-16T06:28:38.361Z,15.20
2023-12-16T06:29:38.376Z,10.56
2023-12-16T06:30:38.320Z,25.08
2023-12-16T06:31:38.075Z,25.28
2023-12-16T06:32:37.624Z,14.08
2023-12-16T06:33:38.693Z,8.88
2023-12-16T06:34:38.015Z,20.76
2023-12-16T06:35:57.997Z,26.88
2023-12-16T06:36:38.294Z,28.32
2023-12-16T06:37:38.810Z,37.48
2023-12-16T06:38:38.103Z,19.32
2023-12-16T06:39:37.577Z,15.20
2023-12-16T06:40:38.061Z,25.36
2023-12-16T06:41:38.005Z,23.96
2023-12-16T06:42:38.007Z,18.84
2023-12-16T06:43:38.321Z,12.84
2023-12-16T06:44:37.966Z,11.52
2023-12-16T06:45:37.651Z,8.36
2023-12-16T06:46:38.194Z,21.72
2023-12-16T06:47:38.260Z,20.56
2023-12-16T06:48:38.135Z,23.00
2023-12-16T06:49:37.780Z,11.00
2023-12-16T06:50:38.266Z,23.56
2023-12-16T06:51:37.728Z,19.64
2023-12-16T06:52:38.656Z,8.88
2023-12-16T06:53:38.349Z,11.04
2023-12-16T06:54:37.682Z,18.60
2023-12-16T06:55:38.226Z,13.96
2023-12-16T06:56:38.329Z,16.00
2023-12-16T06:57:38.764Z,33.88
2023-12-16T06:58:38.393Z,16.64
2023-12-16T06:59:38.353Z,10.72
2023-12-16T07:00:37.978Z,25.52
2023-12-16T07:01:38.485Z,17.56
2023-12-16T07:02:38.593Z,21.40
2023-12-16T07:03:38.654Z,16.52
2023-12-16T07:04:38.755Z,24.40
2023-12-16T07:05:38.499Z,17.72
2023-12-16T07:06:38.182Z,23.04
2023-12-16T07:07:38.826Z,15.24
2023-12-16T07:08:37.494Z,34.84
2023-12-16T07:09:38.410Z,31.60
2023-12-16T07:10:37.670Z,21.12
2023-12-16T07:11:37.948Z,19.48
2023-12-16T07:12:38.425Z,9.64
2023-12-16T07:13:37.984Z,23.76
2023-12-16T07:14:38.317Z,22.36
2023-12-16T07:15:37.891Z,22.64
2023-12-16T07:16:38.446Z,4.44
2023-12-16T07:17:38.487Z,12.12
2023-12-16T07:18:38.663Z,13.44
2023-12-16T07:19:38.523Z,22.60
2023-12-16T07:20:38.031Z,21.92
2023-12-16T07:21:37.744Z,28.20
2023-12-16T07:22:38.792Z,14.72
2023-12-16T07:23:38.414Z,16.28
2023-12-16T07:24:38.552Z,20.48
2023-12-16T07:25:38.863Z,18.08
2023-12-16T07:26:37.745Z,20.60
2023-12-16T07:27:39.495Z,19.48
2023-12-16T07:28:38.944Z,23.08
2023-12-16T07:29:38.049Z,26.44
2023-12-16T07:30:38.427Z,27.56
2023-12-16T07:31:38.527Z,24.56
2023-12-16T07:32:38.073Z,35.60
2023-12-16T07:33:38.006Z,30.80
2023-12-16T07:34:37.656Z,30.04
2023-12-16T07:35:38.687Z,21.40
2023-12-16T07:36:39.160Z,27.72
2023-12-16T07:37:38.369Z,22.36
2023-12-16T07:38:38.493Z,28.12
2023-12-16T07:39:38.865Z,20.76
2023-12-16T07:40:38.343Z,25.32
2023-12-16T07:41:38.496Z,31.44
2023-12-16T07:42:40.580Z,26.84
2023-12-16T07:43:37.620Z,37.36
2023-12-16T07:44:37.970Z,21.44
2023-12-16T07:45:38.293Z,19.16
2023-12-16T07:46:37.596Z,25.56
2023-12-16T07:47:39.053Z,27.56
2023-12-16T07:48:37.883Z,16.52
2023-12-16T07:49:37.424Z,30.80
2023-12-16T07:50:38.590Z,31.68
2023-12-16T07:51:38.686Z,23.40
2023-12-16T07:52:38.517Z,15.40
2023-12-16T07:53:38.095Z,11.36
2023-12-16T07:54:37.544Z,13.00
2023-12-16T07:55:38.716Z,31.08
2023-12-16T07:56:39.200Z,18.80
2023-12-16T07:57:38.776Z,16.92
2023-12-16T07:58:38.103Z,21.48
2023-12-16T07:59:37.689Z,31.16
2023-12-16T08:00:38.234Z,26.80
2023-12-16T08:01:37.945Z,17.16
2023-12-16T08:02:38.081Z,11.88
2023-12-16T08:03:37.799Z,20.80
2023-12-16T08:04:38.310Z,21.20
2023-12-16T08:05:37.898Z,15.40
2023-12-16T08:06:37.200Z,12.24
2023-12-16T08:07:38.896Z,13.32
2023-12-16T08:08:37.563Z,20.88
2023-12-16T08:09:37.772Z,30.88
2023-12-16T08:10:39.098Z,20.88
2023-12-16T08:11:38.143Z,17.96
2023-12-16T08:12:38.635Z,13.16
2023-12-16T08:13:38.065Z,17.48
2023-12-16T08:14:37.567Z,10.04
2023-12-16T08:15:38.985Z,16.32
2023-12-16T08:16:38.145Z,15.04
2023-12-16T08:17:38.564Z,9.64
2023-12-16T08:18:38.655Z,7.96
2023-12-16T08:19:39.018Z,7.04
2023-12-16T08:20:37.788Z,8.88
2023-12-16T08:21:38.459Z,10.40
2023-12-16T08:22:37.970Z,9.92
2023-12-16T08:23:37.983Z,17.32
2023-12-16T08:24:38.345Z,13.72
2023-12-16T08:25:38.249Z,9.52
2023-12-16T08:26:37.568Z,13.60
2023-12-16T08:27:38.557Z,16.56
2023-12-16T08:28:38.620Z,11.08
2023-12-16T08:29:38.203Z,21.20
2023-12-16T08:30:38.175Z,23.64
2023-12-16T08:31:37.578Z,13.44
2023-12-16T08:32:38.495Z,12.52
2023-12-16T08:33:38.179Z,15.40
2023-12-16T08:34:38.282Z,16.00
2023-12-16T08:35:38.125Z,16.40
2023-12-16T08:36:38.798Z,12.84
2023-12-16T08:37:39.380Z,10.04
2023-12-16T08:38:38.561Z,15.56
2023-12-16T08:39:38.143Z,14.72
2023-12-16T08:40:38.315Z,14.16
2023-12-16T08:41:38.472Z,11.80
2023-12-16T08:42:38.492Z,14.76
2023-12-16T08:43:38.156Z,7.32
2023-12-16T08:44:37.674Z,9.64
2023-12-16T08:45:38.572Z,17.72
2023-12-16T08:46:38.631Z,27.60
2023-12-16T08:47:39.266Z,11.52
2023-12-16T08:48:38.568Z,11.24
2023-12-16T08:49:37.919Z,6.48
2023-12-16T08:50:37.974Z,9.40
2023-12-16T08:51:38.180Z,18.64
2023-12-16T08:52:38.266Z,32.52
2023-12-16T08:53:38.057Z,30.60
2023-12-16T08:54:37.299Z,15.16
2023-12-16T08:55:38.280Z,18.28
2023-12-16T08:56:38.322Z,12.84
2023-12-16T08:57:38.644Z,13.84
2023-12-16T08:58:37.476Z,37.52
2023-12-16T08:59:38.932Z,17.72
2023-12-16T09:00:37.582Z,18.92
2023-12-16T09:01:38.749Z,10.24
2023-12-16T09:02:38.852Z,22.80
2023-12-16T09:03:38.908Z,28.52
2023-12-16T09:04:37.955Z,11.32
2023-12-16T09:05:37.660Z,17.72
2023-12-16T09:06:38.884Z,20.56
2023-12-16T09:07:39.282Z,20.80
2023-12-16T09:08:37.888Z,20.40
2023-12-16T09:09:37.422Z,18.12
2023-12-16T09:10:39.482Z,18.92
2023-12-16T09:11:39.133Z,13.20
2023-12-16T09:12:38.417Z,20.32
2023-12-16T09:13:37.819Z,10.64
2023-12-16T09:14:38.919Z,13.20
2023-12-16T09:15:38.087Z,10.16
2023-12-16T09:16:38.201Z,9.36
2023-12-16T09:17:38.563Z,19.00
2023-12-16T09:18:38.477Z,20.00
2023-12-16T09:19:39.192Z,14.40
2023-12-16T09:20:52.096Z,22.56
2023-12-16T09:21:37.655Z,17.28
2023-12-16T09:22:38.021Z,13.40
2023-12-16T09:23:38.192Z,13.52
2023-12-16T09:24:38.406Z,33.88
2023-12-16T09:25:38.449Z,22.96
2023-12-16T09:26:38.935Z,33.04
2023-12-16T09:27:38.420Z,13.28
2023-12-16T09:28:38.330Z,13.16
2023-12-16T09:29:37.955Z,12.96
2023-12-16T09:30:37.392Z,11.88
2023-12-16T09:31:38.125Z,18.36
2023-12-16T09:32:38.243Z,16.68
2023-12-16T09:33:38.828Z,16.32
2023-12-16T09:34:37.668Z,16.80
2023-12-16T09:35:39.108Z,5.56
2023-12-16T09:36:37.727Z,15.12
2023-12-16T09:37:38.588Z,39.68
2023-12-16T09:38:39.664Z,48.24
2023-12-16T09:39:38.977Z,33.24
2023-12-16T09:40:38.606Z,25.04
2023-12-16T09:41:38.119Z,18.00
2023-12-16T09:42:38.370Z,22.16
2023-12-16T09:43:39.100Z,26.08
2023-12-16T09:44:37.775Z,20.04
2023-12-16T09:45:38.608Z,14.00
2023-12-16T09:46:37.551Z,22.72
2023-12-16T09:47:39.339Z,23.60
2023-12-16T09:48:38.082Z,18.56
2023-12-16T09:49:38.237Z,10.84
2023-12-16T09:50:37.882Z,10.36
2023-12-16T09:52:38.133Z,15.68
2023-12-16T09:53:38.476Z,9.40
2023-12-16T09:54:38.980Z,5.62
2023-12-16T09:55:39.350Z,13.76
2023-12-16T09:56:38.607Z,15.20
2023-12-16T09:57:38.436Z,11.20
2023-12-16T09:58:38.597Z,16.59
2023-12-16T09:59:38.140Z,13.88
2023-12-16T10:00:38.924Z,18.28
2023-12-16T10:01:38.166Z,14.88
2023-12-16T10:02:38.301Z,7.03
2023-12-16T10:03:38.033Z,19.32
2023-12-16T10:04:37.349Z,19.04
2023-12-16T10:05:38.728Z,11.04
2023-12-16T10:06:38.246Z,12.08
2023-12-16T10:07:38.129Z,14.96
2023-12-16T10:08:38.309Z,10.96
2023-12-16T10:09:37.840Z,13.28
2023-12-16T10:10:38.439Z,9.36
2023-12-16T10:11:38.516Z,19.96
2023-12-16T10:12:38.754Z,15.88
2023-12-16T10:13:38.172Z,7.72
2023-12-16T10:14:38.273Z,13.88
2023-12-16T10:15:37.723Z,17.20
2023-12-16T10:16:38.222Z,20.80
2023-12-16T10:17:38.742Z,12.40
2023-12-16T10:18:37.907Z,15.36
2023-12-16T10:19:37.612Z,28.92
2023-12-16T10:20:38.853Z,23.56
2023-12-16T10:21:38.857Z,12.36
2023-12-16T10:22:38.977Z,17.72
2023-12-16T10:23:38.049Z,12.72
2023-12-16T10:24:37.835Z,14.16
2023-12-16T10:25:38.762Z,20.08
2023-12-16T10:26:39.046Z,14.52
2023-12-16T10:27:38.499Z,15.48
2023-12-16T10:28:37.872Z,17.36
2023-12-16T10:29:41.009Z,26.52
2023-12-16T10:30:38.316Z,26.64
2023-12-16T10:31:38.553Z,20.64
2023-12-16T10:32:38.810Z,19.20
2023-12-16T10:33:38.163Z,15.60
2023-12-16T10:34:38.269Z,26.32
2023-12-16T10:35:37.819Z,27.88
2023-12-16T10:36:38.660Z,38.24
2023-12-16T10:37:38.768Z,25.24
2023-12-16T10:38:38.210Z,23.84
2023-12-16T10:39:38.536Z,18.16
2023-12-16T10:40:38.293Z,27.16
2023-12-16T10:41:38.140Z,13.16
2023-12-16T10:42:38.051Z,36.68
2023-12-16T10:43:38.027Z,16.08
2023-12-16T10:44:38.332Z,29.08
2023-12-16T10:45:37.907Z,23.08
2023-12-16T10:46:38.128Z,26.40
2023-12-16T10:47:37.631Z,18.00
2023-12-16T10:48:38.934Z,28.28
2023-12-16T10:49:37.812Z,15.60
2023-12-16T10:50:40.392Z,13.40
2023-12-16T10:51:38.292Z,13.08
2023-12-16T10:52:38.531Z,15.20
2023-12-16T10:53:37.828Z,14.72
2023-12-16T10:54:39.072Z,19.08
2023-12-16T10:55:37.781Z,16.60
2023-12-16T10:56:39.545Z,15.76
2023-12-16T10:57:37.506Z,17.20
2023-12-16T10:58:38.913Z,12.08
2023-12-16T10:59:38.013Z,16.08
2023-12-16T11:00:37.367Z,22.64
2023-12-16T11:01:38.836Z,22.32
2023-12-16T11:02:38.159Z,14.12
2023-12-16T11:03:37.486Z,21.84
2023-12-16T11:04:38.481Z,9.04
2023-12-16T11:05:38.783Z,9.40
2023-12-16T11:06:37.649Z,11.08
2023-12-16T11:07:38.729Z,11.88
2023-12-16T11:08:37.640Z,15.16
2023-12-16T11:09:38.209Z,17.84
2023-12-16T11:10:37.519Z,30.08
2023-12-16T11:11:38.051Z,26.48
2023-12-16T11:12:38.129Z,29.28
2023-12-16T11:13:38.358Z,24.84
2023-12-16T11:14:37.889Z,26.32
2023-12-16T11:15:37.976Z,21.48
2023-12-16T11:16:37.605Z,12.72
2023-12-16T11:17:38.570Z,7.64
2023-12-16T11:18:38.797Z,14.68
2023-12-16T11:19:38.938Z,9.76
2023-12-16T11:20:37.347Z,10.60
2023-12-16T11:21:38.170Z,12.76
2023-12-16T11:22:38.270Z,24.16
2023-12-16T11:23:38.053Z,16.80
2023-12-16T11:24:37.650Z,21.04
2023-12-16T11:25:39.065Z,14.28
2023-12-16T11:26:37.962Z,28.84
2023-12-16T11:27:37.964Z,23.08
2023-12-16T11:28:37.701Z,18.28
2023-12-16T11:29:38.129Z,15.24
2023-12-16T11:30:38.208Z,9.88
2023-12-16T11:31:38.398Z,22.68
2023-12-16T11:32:39.131Z,19.08
2023-12-16T11:33:38.403Z,27.88
2023-12-16T11:34:37.773Z,28.60
2023-12-16T11:35:38.663Z,34.20
2023-12-16T11:36:38.236Z,35.84
2023-12-16T11:37:38.425Z,23.12
2023-12-16T11:38:38.085Z,22.64
2023-12-16T11:39:37.858Z,14.96
2023-12-16T11:40:40.660Z,25.92
2023-12-16T11:41:38.334Z,26.44
2023-12-16T11:42:38.808Z,20.24
2023-12-16T11:43:37.602Z,32.28
2023-12-16T11:44:38.310Z,31.00
2023-12-16T11:45:38.233Z,25.56
2023-12-16T11:46:38.405Z,25.00
2023-12-16T11:47:38.374Z,17.40
2023-12-16T11:48:37.878Z,22.80
2023-12-16T11:49:38.525Z,30.40
2023-12-16T11:50:38.511Z,26.80
2023-12-16T11:51:38.337Z,27.44
2023-12-16T11:52:38.564Z,14.58
2023-12-16T11:53:39.206Z,18.28
2023-12-16T11:54:38.389Z,18.48
2023-12-16T11:55:38.042Z,22.08
2023-12-16T11:56:37.475Z,22.24
2023-12-16T11:57:38.577Z,26.16
2023-12-16T11:58:38.702Z,24.20
2023-12-16T11:59:39.020Z,29.76
2023-12-16T12:00:37.568Z,25.24
2023-12-16T12:01:38.729Z,18.24
2023-12-16T12:02:39.613Z,15.08
2023-12-16T12:03:39.154Z,13.20
2023-12-16T12:04:37.631Z,11.96
2023-12-16T12:06:38.425Z,30.60
2023-12-16T12:07:37.937Z,41.64
2023-12-16T12:08:37.953Z,20.16
2023-12-16T12:09:37.262Z,21.80
2023-12-16T12:10:38.015Z,27.16
2023-12-16T12:11:38.512Z,31.20
2023-12-16T12:12:38.819Z,26.92
2023-12-16T12:13:37.517Z,24.28
2023-12-16T12:14:38.214Z,29.64
2023-12-16T12:15:37.888Z,34.36
2023-12-16T12:16:39.321Z,8.68
2023-12-16T12:17:38.689Z,24.16
2023-12-16T12:18:38.161Z,25.64
2023-12-16T12:19:37.947Z,36.84
2023-12-16T12:20:38.016Z,21.80
2023-12-16T12:21:37.494Z,11.84
2023-12-16T12:22:38.598Z,14.08
2023-12-16T12:23:38.270Z,9.60
2023-12-16T12:24:37.887Z,18.12
2023-12-16T12:25:38.333Z,10.00
2023-12-16T12:26:38.910Z,11.80
2023-12-16T12:27:38.092Z,9.76
2023-12-16T12:28:37.885Z,10.64
2023-12-16T12:29:38.372Z,4.60
2023-12-16T12:30:38.200Z,9.24
2023-12-16T12:31:37.792Z,12.44
2023-12-16T12:32:39.021Z,24.88
2023-12-16T12:33:38.147Z,16.72
2023-12-16T12:34:38.834Z,11.24
2023-12-16T12:35:37.719Z,19.44
2023-12-16T12:36:38.733Z,19.44
2023-12-16T12:37:38.601Z,15.88
2023-12-16T12:38:38.351Z,17.96
2023-12-16T12:39:38.575Z,17.92
2023-12-16T12:40:39.249Z,15.36
2023-12-16T12:41:38.287Z,41.56
2023-12-16T12:42:38.690Z,26.00
2023-12-16T12:43:38.642Z,33.36
2023-12-16T12:44:38.318Z,23.60
2023-12-16T12:45:38.554Z,16.32
2023-12-16T12:46:38.081Z,12.68
2023-12-16T12:47:38.268Z,32.44
2023-12-16T12:48:38.432Z,37.56
2023-12-16T12:49:38.279Z,18.88
2023-12-16T12:50:37.826Z,17.52
2023-12-16T12:53:17.196Z,27.64
2023-12-16T12:53:38.541Z,56.72
2023-12-16T12:54:38.872Z,31.80
2023-12-16T12:55:38.738Z,12.04
2023-12-16T12:56:38.700Z,26.40
2023-12-16T12:57:38.434Z,23.00
2023-12-16T12:58:38.382Z,18.80
2023-12-16T12:59:59.537Z,37.76
2023-12-16T13:00:38.429Z,30.20
2023-12-16T13:01:38.371Z,23.12
2023-12-16T13:02:38.206Z,30.04
2023-12-16T13:03:38.033Z,27.24
2023-12-16T13:04:47.263Z,18.52
2023-12-16T13:05:37.779Z,50.32